CSN5782 ZGSZ-ZBAA
Flight info
| Callsign | CSN5782 |
|---|---|
| Flight time | N/A |
| Altitude | 37100 |
| Route | MIPAG1 MIPAG W21 TEPID W22 YIN A461 BUBDA/K0882S1160 W56 REBIS/K0878S1130 W56 LEBUN/K0869S1160 W56 NUDKU/K0872S1190 W56 DUGEB DUGEB4A |
| Aircraft | B77W/H-SDE1E2E3FGHIJ2J3J4J5M1RWXY/LB1D1 |
Departure
| Time | 2026-04-26 09:36 |
|---|---|
| Airport | Shenzhen Bao'an International Airport (ZGSZ) |
Arrival
| Time | N/A |
|---|---|
| Airport | Beijing Capital International Airport (ZBAA) |
| Time | Latitude | Longitude | Altitude | Speed | Heading |
|---|---|---|---|---|---|
| 2026-04-26 09:11 | 22.63067 | 113.80553 | 28 ft | 0 kts | 65° |
| 2026-04-26 09:18 | 22.63061 | 113.80541 | 28 ft | 2 kts | 65° |
| 2026-04-26 09:19 | 22.63055 | 113.80526 | 28 ft | 1 kts | 65° |
| 2026-04-26 09:19 | 22.63051 | 113.80517 | 28 ft | 2 kts | 62° |
| 2026-04-26 09:19 | 22.63042 | 113.80505 | 28 ft | 2 kts | 40° |
| 2026-04-26 09:19 | 22.63030 | 113.80496 | 28 ft | 2 kts | 22° |
| 2026-04-26 09:20 | 22.63016 | 113.80492 | 28 ft | 2 kts | 5° |
| 2026-04-26 09:20 | 22.63001 | 113.80492 | 28 ft | 2 kts | 347° |
| 2026-04-26 09:20 | 22.62990 | 113.80496 | 28 ft | 1 kts | 334° |
| 2026-04-26 09:20 | 22.62988 | 113.80497 | 28 ft | 0 kts | 333° |
| 2026-04-26 09:21 | 22.62989 | 113.80497 | 28 ft | 0 kts | 333° |
| 2026-04-26 09:22 | 22.62991 | 113.80496 | 28 ft | 1 kts | 333° |
| 2026-04-26 09:22 | 22.63010 | 113.80486 | 28 ft | 4 kts | 333° |
| 2026-04-26 09:23 | 22.63045 | 113.80461 | 28 ft | 7 kts | 311° |
| 2026-04-26 09:23 | 22.63051 | 113.80410 | 28 ft | 7 kts | 256° |
| 2026-04-26 09:23 | 22.63033 | 113.80358 | 28 ft | 7 kts | 245° |
| 2026-04-26 09:23 | 22.63010 | 113.80308 | 28 ft | 7 kts | 243° |
| 2026-04-26 09:24 | 22.62985 | 113.80257 | 28 ft | 7 kts | 242° |
| 2026-04-26 09:24 | 22.62961 | 113.80209 | 28 ft | 7 kts | 242° |
| 2026-04-26 09:24 | 22.62935 | 113.80155 | 28 ft | 8 kts | 244° |
| 2026-04-26 09:24 | 22.62938 | 113.80097 | 28 ft | 7 kts | 309° |
| 2026-04-26 09:25 | 22.62987 | 113.80057 | 28 ft | 9 kts | 330° |
| 2026-04-26 09:25 | 22.63043 | 113.80025 | 28 ft | 9 kts | 332° |
| 2026-04-26 09:25 | 22.63102 | 113.79992 | 28 ft | 9 kts | 333° |
| 2026-04-26 09:25 | 22.63161 | 113.79960 | 28 ft | 9 kts | 334° |
| 2026-04-26 09:26 | 22.63223 | 113.79926 | 28 ft | 10 kts | 333° |
| 2026-04-26 09:26 | 22.63291 | 113.79888 | 28 ft | 11 kts | 333° |
| 2026-04-26 09:26 | 22.63364 | 113.79848 | 28 ft | 12 kts | 334° |
| 2026-04-26 09:26 | 22.63442 | 113.79806 | 28 ft | 12 kts | 332° |
| 2026-04-26 09:27 | 22.63520 | 113.79762 | 28 ft | 12 kts | 332° |
| 2026-04-26 09:27 | 22.63597 | 113.79720 | 28 ft | 12 kts | 334° |
| 2026-04-26 09:27 | 22.63675 | 113.79678 | 28 ft | 12 kts | 333° |
| 2026-04-26 09:27 | 22.63753 | 113.79636 | 28 ft | 12 kts | 333° |
| 2026-04-26 09:28 | 22.63830 | 113.79593 | 28 ft | 12 kts | 333° |
| 2026-04-26 09:28 | 22.63906 | 113.79552 | 28 ft | 11 kts | 333° |
| 2026-04-26 09:28 | 22.63982 | 113.79510 | 28 ft | 12 kts | 333° |
| 2026-04-26 09:28 | 22.64060 | 113.79466 | 28 ft | 12 kts | 333° |
| 2026-04-26 09:29 | 22.64139 | 113.79424 | 28 ft | 12 kts | 333° |
| 2026-04-26 09:29 | 22.64214 | 113.79382 | 28 ft | 11 kts | 333° |
| 2026-04-26 09:29 | 22.64287 | 113.79342 | 28 ft | 13 kts | 333° |
| 2026-04-26 09:29 | 22.64369 | 113.79296 | 28 ft | 13 kts | 333° |
| 2026-04-26 09:30 | 22.64448 | 113.79255 | 28 ft | 12 kts | 333° |
| 2026-04-26 09:30 | 22.64526 | 113.79212 | 28 ft | 12 kts | 333° |
| 2026-04-26 09:30 | 22.64600 | 113.79171 | 28 ft | 11 kts | 333° |
| 2026-04-26 09:30 | 22.64671 | 113.79132 | 28 ft | 11 kts | 333° |
| 2026-04-26 09:31 | 22.64739 | 113.79094 | 28 ft | 10 kts | 333° |
| 2026-04-26 09:31 | 22.64805 | 113.79059 | 27 ft | 10 kts | 333° |
| 2026-04-26 09:31 | 22.64868 | 113.79024 | 27 ft | 9 kts | 333° |
| 2026-04-26 09:31 | 22.64929 | 113.78992 | 28 ft | 9 kts | 333° |
| 2026-04-26 09:32 | 22.64987 | 113.78960 | 28 ft | 9 kts | 333° |
| 2026-04-26 09:32 | 22.65045 | 113.78928 | 28 ft | 9 kts | 333° |
| 2026-04-26 09:32 | 22.65105 | 113.78894 | 27 ft | 10 kts | 333° |
| 2026-04-26 09:32 | 22.65173 | 113.78857 | 28 ft | 10 kts | 333° |
| 2026-04-26 09:33 | 22.65238 | 113.78822 | 28 ft | 10 kts | 333° |
| 2026-04-26 09:33 | 22.65301 | 113.78787 | 28 ft | 9 kts | 333° |
| 2026-04-26 09:33 | 22.65362 | 113.78754 | 28 ft | 9 kts | 333° |
| 2026-04-26 09:33 | 22.65421 | 113.78722 | 27 ft | 9 kts | 333° |
| 2026-04-26 09:34 | 22.65476 | 113.78687 | 28 ft | 9 kts | 316° |
| 2026-04-26 09:34 | 22.65493 | 113.78618 | 28 ft | 10 kts | 257° |
| 2026-04-26 09:34 | 22.65465 | 113.78550 | 28 ft | 9 kts | 236° |
| 2026-04-26 09:34 | 22.65404 | 113.78517 | 27 ft | 8 kts | 176° |
| 2026-04-26 09:35 | 22.65346 | 113.78540 | 28 ft | 0 kts | 154° |
| 2026-04-26 09:35 | 22.65344 | 113.78542 | 28 ft | 5 kts | 154° |
| 2026-04-26 09:35 | 22.65009 | 113.78723 | 28 ft | 104 kts | 152° |
| 2026-04-26 09:36 | 22.64083 | 113.79230 | 140 ft | 185 kts | 155° |
| 2026-04-26 09:36 | 22.62808 | 113.79901 | 761 ft | 222 kts | 155° |
| 2026-04-26 09:36 | 22.61409 | 113.80496 | 1393 ft | 227 kts | 167° |
| 2026-04-26 09:36 | 22.59769 | 113.80490 | 1951 ft | 244 kts | 188° |
| 2026-04-26 09:37 | 22.58052 | 113.80411 | 2498 ft | 248 kts | 172° |
| 2026-04-26 09:37 | 22.56343 | 113.80737 | 3035 ft | 250 kts | 168° |
| 2026-04-26 09:37 | 22.54620 | 113.81132 | 3562 ft | 255 kts | 167° |
| 2026-04-26 09:37 | 22.52863 | 113.81469 | 4091 ft | 258 kts | 178° |
| 2026-04-26 09:38 | 22.51074 | 113.81162 | 4611 ft | 262 kts | 202° |
| 2026-04-26 09:38 | 22.49557 | 113.80106 | 5127 ft | 264 kts | 223° |
| 2026-04-26 09:38 | 22.48352 | 113.78624 | 5657 ft | 264 kts | 235° |
| 2026-04-26 09:38 | 22.47595 | 113.77246 | 6085 ft | 264 kts | 244° |
| 2026-04-26 09:39 | 22.47112 | 113.75935 | 6458 ft | 265 kts | 252° |
| 2026-04-26 09:39 | 22.46710 | 113.73554 | 7097 ft | 268 kts | 267° |
| 2026-04-26 09:39 | 22.46798 | 113.71555 | 7619 ft | 271 kts | 279° |
| 2026-04-26 09:39 | 22.47276 | 113.69592 | 8152 ft | 272 kts | 291° |
| 2026-04-26 09:40 | 22.48032 | 113.67936 | 8634 ft | 273 kts | 302° |
| 2026-04-26 09:40 | 22.49276 | 113.66225 | 9172 ft | 275 kts | 315° |
| 2026-04-26 09:40 | 22.50632 | 113.65009 | 9645 ft | 277 kts | 326° |
| 2026-04-26 09:40 | 22.52100 | 113.64141 | 10095 ft | 280 kts | 337° |
| 2026-04-26 09:41 | 22.54219 | 113.63475 | 10687 ft | 283 kts | 351° |
| 2026-04-26 09:41 | 22.56215 | 113.63467 | 11211 ft | 288 kts | 7° |
| 2026-04-26 09:41 | 22.58143 | 113.63897 | 11728 ft | 292 kts | 16° |
| 2026-04-26 09:41 | 22.60050 | 113.64696 | 12254 ft | 298 kts | 26° |
| 2026-04-26 09:42 | 22.61441 | 113.65550 | 12662 ft | 313 kts | 31° |